Conway, Kansas
Current Conditions -  °F | °C
As of 9:07 PM on Friday 21 Nov 2014 (Local Time) from KHUT Reporting Station
Haze Haze  
Wind Chill: 38°   Ceiling: 200
Heat Index: 43°   Visibility: 1mi
Dew Point: 41°   Wind: 8mph
Humidity: 93%   Direction: 190°S
Pressure: 30.03"   Gusts: NA
Location:  38.4089°N, 97.6556°W
Report Text: KHUT 220307Z 19007KT 1SM R13/4500VP6000FT BR VV002 06/05 A3003 RMK AO2 T00610050 $
Loading
Personal Weather Stations






























Interactive Weather Map New forecast layout! Learn more

10-Day Weather Forecast

Advertisements
Track Severe Weather on mobile